createdAt,value
2018-02-25T00:02:05.358Z,97.40
2018-02-25T00:04:34.423Z,97.40
2018-02-25T00:07:02.662Z,97.40
2018-02-25T00:09:30.934Z,97.30
2018-02-25T00:11:59.276Z,97.50
2018-02-25T00:14:27.498Z,97.70
2018-02-25T00:16:55.754Z,97.40
2018-02-25T00:19:23.964Z,97.20
2018-02-25T00:21:52.212Z,97.80
2018-02-25T00:24:20.433Z,98.20
2018-02-25T00:26:48.672Z,98.10
2018-02-25T00:29:17.034Z,97.80
2018-02-25T00:31:45.254Z,98.10
2018-02-25T00:34:13.592Z,98.30
2018-02-25T00:36:41.865Z,98.40
2018-02-25T00:39:10.653Z,98.70
2018-02-25T00:41:38.906Z,98.70
2018-02-25T00:44:07.899Z,98.20
2018-02-25T00:46:36.909Z,98.50
2018-02-25T00:49:05.134Z,98.50
2018-02-25T00:51:33.376Z,98.60
2018-02-25T00:54:01.597Z,98.60
2018-02-25T00:56:29.892Z,98.30
2018-02-25T00:58:58.101Z,98.30
2018-02-25T01:01:26.320Z,98.10
2018-02-25T01:03:54.574Z,97.90
2018-02-25T01:06:23.685Z,97.80
2018-02-25T01:08:51.936Z,97.90
2018-02-25T01:11:20.168Z,98.20
2018-02-25T01:13:48.385Z,98.70
2018-02-25T01:16:16.642Z,98.20
2018-02-25T01:18:44.898Z,98.30
2018-02-25T01:21:13.089Z,98.10
2018-02-25T01:23:42.105Z,98.70
2018-02-25T01:26:10.320Z,98.70
2018-02-25T01:28:38.569Z,98.50
2018-02-25T01:31:06.790Z,98.20
2018-02-25T01:33:35.813Z,98.80
2018-02-25T01:36:04.030Z,98.50
2018-02-25T01:38:32.282Z,98.80
2018-02-25T01:41:00.530Z,98.80
2018-02-25T01:43:28.745Z,99.00
2018-02-25T01:45:56.997Z,99.10
2018-02-25T01:48:25.213Z,99.10
2018-02-25T01:51:03.421Z,99.40
2018-02-25T01:53:31.680Z,99.90
2018-02-25T01:55:59.906Z,99.70
2018-02-25T01:58:28.921Z,99.90
2018-02-25T02:00:57.188Z,99.80
2018-02-25T02:03:26.181Z,99.90
2018-02-25T02:05:55.873Z,99.90
2018-02-25T02:08:24.113Z,99.90
2018-02-25T02:10:52.366Z,99.90
2018-02-25T02:13:20.594Z,99.90
2018-02-25T02:15:49.725Z,99.90
2018-02-25T02:18:17.969Z,99.90
2018-02-25T02:20:46.460Z,99.90
2018-02-25T02:23:14.705Z,99.90
2018-02-25T02:25:42.929Z,99.90
2018-02-25T02:28:11.936Z,99.90
2018-02-25T02:30:40.489Z,99.90
2018-02-25T02:33:09.511Z,99.90
2018-02-25T02:35:37.735Z,99.90
2018-02-25T02:38:06.962Z,99.90
2018-02-25T02:40:35.169Z,99.90
2018-02-25T02:43:03.414Z,99.90
2018-02-25T02:45:32.405Z,99.90
2018-02-25T02:48:01.500Z,99.90
2018-02-25T02:50:29.717Z,99.90
2018-02-25T02:52:57.957Z,99.90
2018-02-25T02:55:26.961Z,99.90
2018-02-25T02:57:55.189Z,99.90
2018-02-25T03:00:23.448Z,99.90
2018-02-25T03:02:51.674Z,99.90
2018-02-25T03:05:20.694Z,99.90
2018-02-25T03:07:48.917Z,99.90
2018-02-25T03:10:17.145Z,99.90
2018-02-25T03:12:45.397Z,99.90
2018-02-25T03:15:14.491Z,99.90
2018-02-25T03:17:42.708Z,99.90
2018-02-25T03:20:10.961Z,99.90
2018-02-25T03:22:39.213Z,99.90
2018-02-25T03:25:08.200Z,99.90
2018-02-25T03:27:36.414Z,99.90
2018-02-25T03:30:04.660Z,99.90
2018-02-25T03:32:32.913Z,99.90
2018-02-25T03:35:01.886Z,99.90
2018-02-25T03:37:30.141Z,99.90
2018-02-25T03:39:58.360Z,99.90
2018-02-25T03:42:26.613Z,99.90
2018-02-25T03:44:54.882Z,99.90
2018-02-25T03:47:23.134Z,99.90
2018-02-25T03:49:51.389Z,99.90
2018-02-25T03:52:19.645Z,99.90
2018-02-25T03:54:47.862Z,99.90
2018-02-25T03:57:16.083Z,99.90
2018-02-25T03:59:44.317Z,99.90
2018-02-25T04:02:12.569Z,99.90
2018-02-25T04:04:40.848Z,99.90
2018-02-25T04:07:09.042Z,99.90
2018-02-25T04:09:37.289Z,99.90
2018-02-25T04:12:05.532Z,99.90
2018-02-25T04:14:33.881Z,99.90
2018-02-25T04:17:02.129Z,99.90
2018-02-25T04:19:31.146Z,99.90
2018-02-25T04:21:59.366Z,99.90
2018-02-25T04:24:27.617Z,99.90
2018-02-25T04:26:55.846Z,99.90
2018-02-25T04:29:24.090Z,99.90
2018-02-25T04:31:52.304Z,99.90
2018-02-25T04:34:21.324Z,99.90
2018-02-25T04:36:49.569Z,99.90
2018-02-25T04:39:18.586Z,99.90
2018-02-25T04:41:47.568Z,99.90
2018-02-25T04:44:16.583Z,99.90
2018-02-25T04:46:44.801Z,99.90
2018-02-25T04:49:14.643Z,99.90
2018-02-25T04:51:42.861Z,99.90
2018-02-25T04:54:11.130Z,99.90
2018-02-25T04:56:39.401Z,99.90
2018-02-25T04:59:07.622Z,99.90
2018-02-25T05:01:35.849Z,99.90
2018-02-25T05:04:04.129Z,99.90
2018-02-25T05:06:32.349Z,99.90
2018-02-25T05:09:00.610Z,99.90
2018-02-25T05:11:28.869Z,99.90
2018-02-25T05:13:57.138Z,99.90
2018-02-25T05:16:25.364Z,99.90
2018-02-25T05:18:53.625Z,99.90
2018-02-25T05:21:22.580Z,99.90
2018-02-25T05:23:50.843Z,99.90
2018-02-25T05:26:19.830Z,99.90
2018-02-25T05:28:48.834Z,99.90
2018-02-25T05:31:17.193Z,99.90
2018-02-25T05:33:45.398Z,99.90
2018-02-25T05:36:13.748Z,99.90
2018-02-25T05:38:42.261Z,99.90
2018-02-25T05:41:10.505Z,99.90
2018-02-25T05:43:39.538Z,99.90
2018-02-25T05:46:07.817Z,99.90
2018-02-25T05:48:36.161Z,99.90
2018-02-25T05:51:04.468Z,99.90
2018-02-25T05:53:32.721Z,99.90
2018-02-25T05:56:01.012Z,99.90
2018-02-25T05:58:29.292Z,99.90
2018-02-25T06:00:57.516Z,99.90
2018-02-25T06:03:27.284Z,99.90
2018-02-25T06:05:55.557Z,99.90
2018-02-25T06:08:23.805Z,99.90
2018-02-25T06:10:52.798Z,99.90
2018-02-25T06:13:21.817Z,99.90
2018-02-25T06:15:50.067Z,99.90
2018-02-25T06:18:18.546Z,99.90
2018-02-25T06:20:47.572Z,99.90
2018-02-25T06:23:16.022Z,99.90
2018-02-25T06:25:45.024Z,99.90
2018-02-25T06:28:14.038Z,99.90
2018-02-25T06:30:42.297Z,99.90
2018-02-25T06:33:10.979Z,99.90
2018-02-25T06:35:39.164Z,99.90
2018-02-25T06:38:07.456Z,99.90
2018-02-25T06:40:35.685Z,99.90
2018-02-25T06:43:03.953Z,99.90
2018-02-25T06:45:33.075Z,99.90
2018-02-25T06:48:01.321Z,99.90
2018-02-25T06:50:29.549Z,99.90
2018-02-25T06:52:57.908Z,99.90
2018-02-25T06:55:26.093Z,99.90
2018-02-25T06:57:55.124Z,99.90
2018-02-25T07:00:23.357Z,99.90
2018-02-25T07:02:52.345Z,99.90
2018-02-25T07:05:21.340Z,99.90
2018-02-25T07:07:50.338Z,99.90
2018-02-25T07:10:19.360Z,99.90
2018-02-25T07:12:47.638Z,99.90
2018-02-25T07:15:15.865Z,99.90
2018-02-25T07:17:44.128Z,99.90
2018-02-25T07:20:12.370Z,99.60
2018-02-25T07:22:40.617Z,99.80
2018-02-25T07:25:09.705Z,99.50
2018-02-25T07:27:37.980Z,99.50
2018-02-25T07:30:07.097Z,98.80
2018-02-25T07:32:35.457Z,99.30
2018-02-25T07:35:04.348Z,98.80
2018-02-25T07:37:32.538Z,96.80
2018-02-25T07:40:01.543Z,86.20
2018-02-25T07:42:29.812Z,86.10
2018-02-25T07:44:58.014Z,80.30
2018-02-25T07:47:26.228Z,77.50
2018-02-25T07:49:54.469Z,76.70
2018-02-25T07:52:22.712Z,74.30
2018-02-25T07:54:51.694Z,71.90
2018-02-25T07:57:20.710Z,68.50
2018-02-25T07:59:48.964Z,68.30
2018-02-25T08:02:17.181Z,62.50
2018-02-25T08:04:45.414Z,64.10
2018-02-25T08:07:13.922Z,63.50
2018-02-25T08:09:42.140Z,61.60
2018-02-25T08:12:10.384Z,62.20
2018-02-25T08:14:38.603Z,63.10
2018-02-25T08:17:06.822Z,57.60
2018-02-25T08:19:35.586Z,57.50
2018-02-25T08:22:04.601Z,53.20
2018-02-25T08:24:33.593Z,49.30
2018-02-25T08:27:01.882Z,49.10
2018-02-25T08:29:30.122Z,43.20
2018-02-25T08:31:59.137Z,38.30
2018-02-25T08:34:28.116Z,38.30
2018-02-25T08:36:57.105Z,37.70
2018-02-25T08:39:25.381Z,37.70
2018-02-25T08:41:53.626Z,37.00
2018-02-25T08:44:21.822Z,34.20
2018-02-25T08:46:50.108Z,31.70
2018-02-25T08:49:18.385Z,33.20
2018-02-25T08:51:46.600Z,33.40
2018-02-25T08:54:15.142Z,33.60
2018-02-25T08:56:43.384Z,34.60
2018-02-25T08:59:11.629Z,36.60
2018-02-25T09:01:39.906Z,35.00
2018-02-25T09:04:08.122Z,33.90
2018-02-25T09:06:36.425Z,34.80
2018-02-25T09:09:04.805Z,33.60
2018-02-25T09:11:33.017Z,34.60
2018-02-25T09:14:01.254Z,36.30
2018-02-25T09:16:29.473Z,37.80
2018-02-25T09:18:57.686Z,36.60
2018-02-25T09:21:26.185Z,33.30
2018-02-25T09:23:54.441Z,34.40
2018-02-25T09:26:22.665Z,34.50
2018-02-25T09:28:50.917Z,34.00
2018-02-25T09:31:19.130Z,34.30
2018-02-25T09:33:47.365Z,31.80
2018-02-25T09:36:15.587Z,33.10
2018-02-25T09:38:43.834Z,32.60
2018-02-25T09:41:12.840Z,30.80
2018-02-25T09:43:41.058Z,30.70
2018-02-25T09:46:09.294Z,30.00
2018-02-25T09:48:37.498Z,31.20
2018-02-25T09:51:05.917Z,30.10
2018-02-25T09:53:34.121Z,31.00
2018-02-25T09:56:02.331Z,31.20
2018-02-25T09:58:30.583Z,28.90
2018-02-25T10:00:58.818Z,28.30
2018-02-25T10:03:27.025Z,29.10
2018-02-25T10:05:55.277Z,29.40
2018-02-25T10:08:24.365Z,29.80
2018-02-25T10:10:53.429Z,29.70
2018-02-25T10:13:21.657Z,30.10
2018-02-25T10:15:50.634Z,29.50
2018-02-25T10:18:18.875Z,29.50
2018-02-25T10:20:47.183Z,28.70
2018-02-25T10:23:15.386Z,28.20
2018-02-25T10:25:43.593Z,28.30
2018-02-25T10:28:11.830Z,27.60
2018-02-25T10:30:40.854Z,27.20
2018-02-25T10:33:09.060Z,27.20
2018-02-25T10:35:37.294Z,28.30
2018-02-25T10:38:06.282Z,28.10
2018-02-25T10:40:34.493Z,28.00
2018-02-25T10:43:02.737Z,28.00
2018-02-25T10:45:30.961Z,27.60
2018-02-25T10:47:59.251Z,27.20
2018-02-25T10:50:28.249Z,27.00
2018-02-25T10:52:56.522Z,27.60
2018-02-25T10:55:24.761Z,27.90
2018-02-25T10:57:53.705Z,28.30
2018-02-25T11:00:28.369Z,28.30
2018-02-25T11:02:56.606Z,28.30
2018-02-25T11:05:25.610Z,28.60
2018-02-25T11:07:54.597Z,28.60
2018-02-25T11:10:23.606Z,28.90
2018-02-25T11:12:51.808Z,28.90
2018-02-25T11:15:20.126Z,28.80
2018-02-25T11:17:48.326Z,27.60
2018-02-25T11:20:16.577Z,27.80
2018-02-25T11:22:44.774Z,28.00
2018-02-25T11:25:13.772Z,26.60
2018-02-25T11:27:42.021Z,26.60
2018-02-25T11:30:10.216Z,27.90
2018-02-25T11:32:39.212Z,28.10
2018-02-25T11:35:08.221Z,27.40
2018-02-25T11:37:36.428Z,27.40
2018-02-25T11:40:04.665Z,27.20
2018-02-25T11:42:34.651Z,28.00
2018-02-25T11:45:02.936Z,28.00
2018-02-25T11:47:31.112Z,28.10
2018-02-25T11:50:00.113Z,27.20
2018-02-25T11:52:29.089Z,27.20
2018-02-25T11:54:57.321Z,27.20
2018-02-25T11:57:25.643Z,26.40
2018-02-25T11:59:53.844Z,26.10
2018-02-25T12:02:22.816Z,27.20
2018-02-25T12:04:51.908Z,28.20
2018-02-25T12:07:20.119Z,28.10
2018-02-25T12:09:48.461Z,27.30
2018-02-25T12:12:16.840Z,28.00
2018-02-25T12:14:45.020Z,27.70
2018-02-25T12:17:14.113Z,30.00
2018-02-25T12:19:42.301Z,30.00
2018-02-25T12:22:11.285Z,31.40
2018-02-25T12:24:40.375Z,32.30
2018-02-25T12:27:08.590Z,32.30
2018-02-25T12:29:36.825Z,32.50
2018-02-25T12:32:06.082Z,34.60
2018-02-25T12:34:34.315Z,34.60
2018-02-25T12:37:03.314Z,35.00
2018-02-25T12:39:32.390Z,34.70
2018-02-25T12:42:00.698Z,34.70
2018-02-25T12:44:28.949Z,34.60
2018-02-25T12:46:57.928Z,35.10
2018-02-25T12:49:26.175Z,35.00
2018-02-25T12:51:54.393Z,35.60
2018-02-25T12:54:23.629Z,34.20
2018-02-25T12:56:51.841Z,34.10
2018-02-25T12:59:20.085Z,33.70
2018-02-25T13:01:48.470Z,34.10
2018-02-25T13:04:16.684Z,35.90
2018-02-25T13:06:44.971Z,33.90
2018-02-25T13:09:13.177Z,32.80
2018-02-25T13:11:42.260Z,32.30
2018-02-25T13:14:10.509Z,31.60
2018-02-25T13:16:38.721Z,31.30
2018-02-25T13:19:07.071Z,30.70
2018-02-25T13:21:35.349Z,30.40
2018-02-25T13:24:03.625Z,30.20
2018-02-25T13:26:31.806Z,28.90
2018-02-25T13:29:01.100Z,28.90
2018-02-25T13:31:29.377Z,28.90
2018-02-25T13:33:57.778Z,27.90
2018-02-25T13:36:26.032Z,27.60
2018-02-25T13:38:54.342Z,28.70
2018-02-25T13:41:22.586Z,28.40
2018-02-25T13:43:50.868Z,27.50
2018-02-25T13:46:19.084Z,26.60
2018-02-25T13:48:47.360Z,27.00
2018-02-25T13:51:15.596Z,28.20
2018-02-25T13:53:44.687Z,26.40
2018-02-25T13:56:12.898Z,26.40
2018-02-25T13:58:41.138Z,27.50
2018-02-25T14:01:09.364Z,28.80
2018-02-25T14:03:37.692Z,29.60
2018-02-25T14:06:05.968Z,29.90
2018-02-25T14:08:34.182Z,28.70
2018-02-25T14:11:02.425Z,28.90
2018-02-25T14:13:31.440Z,28.60
2018-02-25T14:15:59.658Z,28.60
2018-02-25T14:18:27.967Z,26.80
2018-02-25T14:20:56.244Z,26.90
2018-02-25T14:23:25.239Z,27.40
2018-02-25T14:25:53.442Z,26.10
2018-02-25T14:28:21.681Z,26.60
2018-02-25T14:30:49.901Z,27.90
2018-02-25T14:33:18.156Z,26.90
2018-02-25T14:35:47.138Z,26.20
2018-02-25T14:38:15.387Z,25.60
2018-02-25T14:40:43.688Z,26.10
2018-02-25T14:43:12.821Z,27.50
2018-02-25T14:45:41.050Z,28.50
2018-02-25T14:48:09.297Z,29.50
2018-02-25T14:50:38.272Z,31.10
2018-02-25T14:53:06.498Z,30.50
2018-02-25T14:55:34.753Z,28.80
2018-02-25T14:58:03.042Z,29.20
2018-02-25T15:00:31.252Z,29.50
2018-02-25T15:03:00.274Z,31.10
2018-02-25T15:05:28.517Z,31.10
2018-02-25T15:07:57.530Z,31.70
2018-02-25T15:10:25.749Z,31.70
2018-02-25T15:12:53.990Z,31.40
2018-02-25T15:15:22.234Z,31.30
2018-02-25T15:17:51.373Z,31.90
2018-02-25T15:20:19.599Z,31.90
2018-02-25T15:22:47.782Z,31.10
2018-02-25T15:25:16.809Z,31.60
2018-02-25T15:27:45.044Z,31.60
2018-02-25T15:30:14.042Z,32.40
2018-02-25T15:32:43.066Z,34.40
2018-02-25T15:35:11.290Z,34.40
2018-02-25T15:37:39.515Z,36.30
2018-02-25T15:40:07.770Z,37.40
2018-02-25T15:42:36.828Z,35.50
2018-02-25T15:45:05.132Z,35.50
2018-02-25T15:47:33.321Z,37.70
2018-02-25T15:50:02.329Z,40.20
2018-02-25T15:52:30.573Z,40.20
2018-02-25T15:54:58.852Z,42.20
2018-02-25T15:57:27.034Z,40.70
2018-02-25T15:59:56.047Z,40.40
2018-02-25T16:02:24.265Z,40.30
2018-02-25T16:04:52.605Z,42.40
2018-02-25T16:07:20.852Z,44.10
2018-02-25T16:09:49.066Z,45.80
2018-02-25T16:12:17.282Z,46.70
2018-02-25T16:14:45.541Z,48.00
2018-02-25T16:17:13.762Z,49.90
2018-02-25T16:19:42.774Z,51.40
2018-02-25T16:22:11.015Z,51.40
2018-02-25T16:24:39.300Z,52.20
2018-02-25T16:27:07.521Z,51.80
2018-02-25T16:29:35.751Z,53.00
2018-02-25T16:32:04.027Z,54.80
2018-02-25T16:34:32.981Z,55.60
2018-02-25T16:37:01.248Z,55.60
2018-02-25T16:39:30.292Z,57.70
2018-02-25T16:41:58.482Z,57.70
2018-02-25T16:44:27.496Z,59.00
2018-02-25T16:46:55.741Z,59.00
2018-02-25T16:49:24.832Z,58.80
2018-02-25T16:51:53.969Z,58.70
2018-02-25T16:54:22.206Z,58.70
2018-02-25T16:56:50.441Z,59.00
2018-02-25T16:59:18.759Z,58.40
2018-02-25T17:01:47.037Z,59.00
2018-02-25T17:04:15.238Z,57.50
2018-02-25T17:06:43.459Z,56.90
2018-02-25T17:09:12.525Z,57.80
2018-02-25T17:11:41.646Z,59.20
2018-02-25T17:14:09.874Z,60.40
2018-02-25T17:16:38.890Z,60.50
2018-02-25T17:19:07.115Z,60.60
2018-02-25T17:21:35.367Z,59.40
2018-02-25T17:24:03.585Z,60.00
2018-02-25T17:26:32.878Z,62.40
2018-02-25T17:29:01.098Z,62.40
2018-02-25T17:31:29.369Z,59.50
2018-02-25T17:33:57.605Z,60.40
2018-02-25T17:36:26.608Z,61.50
2018-02-25T17:38:55.617Z,61.10
2018-02-25T17:41:24.380Z,61.00
2018-02-25T17:43:53.537Z,61.80
2018-02-25T17:46:21.855Z,61.70
2018-02-25T17:48:50.039Z,63.10
2018-02-25T17:51:19.088Z,61.70
2018-02-25T17:53:47.403Z,61.70
2018-02-25T17:56:15.613Z,62.20
2018-02-25T17:58:44.573Z,60.90
2018-02-25T18:01:12.794Z,61.20
2018-02-25T18:03:41.270Z,61.80
2018-02-25T18:06:09.509Z,61.80
2018-02-25T18:08:38.538Z,62.60
2018-02-25T18:11:06.753Z,62.60
2018-02-25T18:13:34.997Z,61.10
2018-02-25T18:16:03.231Z,60.90
2018-02-25T18:18:32.245Z,62.60
2018-02-25T18:21:00.465Z,62.70
2018-02-25T18:23:29.486Z,63.80
2018-02-25T18:25:57.705Z,64.50
2018-02-25T18:28:25.953Z,63.50
2018-02-25T18:30:55.043Z,65.00
2018-02-25T18:33:23.257Z,65.00
2018-02-25T18:35:51.483Z,65.70
2018-02-25T18:38:19.728Z,64.60
2018-02-25T18:40:47.945Z,64.80
2018-02-25T18:43:17.446Z,65.40
2018-02-25T18:45:45.720Z,65.30
2018-02-25T18:48:14.678Z,66.10
2018-02-25T18:50:42.912Z,65.60
2018-02-25T18:53:11.926Z,63.40
2018-02-25T18:55:40.459Z,63.40
2018-02-25T18:58:09.645Z,64.70
2018-02-25T19:00:38.845Z,66.40
2018-02-25T19:03:07.103Z,66.40
2018-02-25T19:05:35.348Z,67.40
2018-02-25T19:08:03.569Z,68.70
2018-02-25T19:10:31.867Z,68.50
2018-02-25T19:13:00.325Z,67.30
2018-02-25T19:15:28.847Z,67.40
2018-02-25T19:17:57.222Z,69.60
2018-02-25T19:20:25.721Z,69.50
2018-02-25T19:22:54.447Z,69.60
2018-02-25T19:25:23.242Z,69.90
2018-02-25T19:27:51.937Z,69.10
2018-02-25T19:30:20.273Z,69.80
2018-02-25T19:32:48.775Z,70.00
2018-02-25T19:35:17.156Z,70.40
2018-02-25T19:37:51.184Z,71.00
2018-02-25T19:40:25.088Z,71.40
2018-02-25T19:42:54.510Z,72.20
2018-02-25T19:45:22.998Z,72.20
2018-02-25T19:47:52.212Z,73.60
2018-02-25T19:50:20.612Z,73.50
2018-02-25T19:52:49.454Z,76.20
2018-02-25T19:55:18.811Z,77.80
2018-02-25T19:57:47.506Z,77.70
2018-02-25T20:00:16.167Z,75.60
2018-02-25T20:02:44.512Z,76.00
2018-02-25T20:05:13.833Z,76.20
2018-02-25T20:07:42.256Z,77.80
2018-02-25T20:10:11.410Z,78.80
2018-02-25T20:12:40.574Z,77.50
2018-02-25T20:15:08.982Z,77.40
2018-02-25T20:17:37.328Z,75.90
2018-02-25T20:20:05.747Z,74.60
2018-02-25T20:22:34.177Z,75.50
2018-02-25T20:25:02.628Z,71.90
2018-02-25T20:27:31.147Z,71.10
2018-02-25T20:29:59.603Z,69.70
2018-02-25T20:32:28.223Z,69.60
2018-02-25T20:34:56.751Z,69.60
2018-02-25T20:37:25.069Z,69.70
2018-02-25T20:39:53.391Z,72.20
2018-02-25T20:42:22.554Z,73.70
2018-02-25T20:44:50.959Z,73.60
2018-02-25T20:47:20.063Z,74.20
2018-02-25T20:49:49.203Z,74.20
2018-02-25T20:52:18.466Z,73.50
2018-02-25T20:54:46.850Z,73.50
2018-02-25T20:57:16.032Z,73.40
2018-02-25T20:59:45.144Z,73.30
2018-02-25T21:02:13.483Z,73.20
2018-02-25T21:04:42.639Z,74.20
2018-02-25T21:07:10.961Z,74.00
2018-02-25T21:09:40.082Z,75.30
2018-02-25T21:12:08.498Z,75.30
2018-02-25T21:14:36.930Z,75.60
2018-02-25T21:17:05.285Z,76.10
2018-02-25T21:19:33.672Z,73.40
2018-02-25T21:22:02.035Z,74.70
2018-02-25T21:24:31.156Z,72.70
2018-02-25T21:26:59.513Z,73.30
2018-02-25T21:29:27.890Z,73.20
2018-02-25T21:31:56.268Z,74.00
2018-02-25T21:34:24.627Z,73.70
2018-02-25T21:36:52.990Z,72.30
2018-02-25T21:39:21.338Z,72.00
2018-02-25T21:41:49.751Z,72.30
2018-02-25T21:44:18.163Z,73.10
2018-02-25T21:46:46.482Z,74.20
2018-02-25T21:49:15.544Z,74.40
2018-02-25T21:51:43.845Z,74.30
2018-02-25T21:54:18.738Z,72.70
2018-02-25T21:56:52.936Z,72.70
2018-02-25T21:59:27.159Z,72.50
2018-02-25T22:02:01.981Z,72.90
2018-02-25T22:04:30.306Z,72.80
2018-02-25T22:06:58.611Z,72.50
2018-02-25T22:09:27.014Z,71.90
2018-02-25T22:11:55.331Z,71.00
2018-02-25T22:14:23.727Z,72.20
2018-02-25T22:16:52.078Z,71.70
2018-02-25T22:19:20.400Z,73.00
2018-02-25T22:21:48.763Z,72.50
2018-02-25T22:24:17.870Z,72.60
2018-02-25T22:26:46.963Z,72.90
2018-02-25T22:29:15.335Z,72.90
2018-02-25T22:31:43.853Z,72.50
2018-02-25T22:34:12.184Z,73.50
2018-02-25T22:36:40.586Z,74.60
2018-02-25T22:39:09.732Z,75.00
2018-02-25T22:41:37.982Z,74.80
2018-02-25T22:44:06.228Z,74.90
2018-02-25T22:46:34.479Z,74.70
2018-02-25T22:49:02.701Z,75.50
2018-02-25T22:51:31.032Z,75.60
2018-02-25T22:53:59.222Z,75.10
2018-02-25T22:56:28.241Z,75.80
2018-02-25T22:58:56.477Z,75.80
2018-02-25T23:01:24.677Z,76.10
2018-02-25T23:03:52.925Z,76.10
2018-02-25T23:06:21.917Z,76.60
2018-02-25T23:08:50.941Z,76.90
2018-02-25T23:11:19.190Z,76.80
2018-02-25T23:13:47.406Z,77.40
2018-02-25T23:16:15.658Z,78.10
2018-02-25T23:18:44.649Z,79.60
2018-02-25T23:21:13.014Z,79.50
2018-02-25T23:23:41.209Z,79.60
2018-02-25T23:26:09.568Z,78.90
2018-02-25T23:28:37.749Z,79.30
2018-02-25T23:31:06.729Z,79.10
2018-02-25T23:33:34.978Z,79.00
2018-02-25T23:36:03.225Z,79.00
2018-02-25T23:38:31.462Z,78.80
2018-02-25T23:40:59.721Z,79.40
2018-02-25T23:43:28.221Z,79.80
